Rechercher aéroport 
image banner adimage banner adimage banner ad
image banner ad

KDLO - Delano Muni

Situé à Delano, United States

ICAO - DLO, IATA -

Données fournies par Airmate  

Information générale

Coordonnées: N35°44'44" W119°14'11"
Élévation : 316 feet MSL.
Variation magnétique : 16° East
Voir autres Aéroports à California

Données opérationnelles

Special qualification required
Heure actuelle UTC:
Heure actuelle locale:
Météo
METAR: KDLO 300135Z AUTO 36008KT 10SM CLR 37/11 A2976 RMK AO2 T03710105
Voir NOTAMs / SUP AIP / TFR affectant cet aéroport [VIEW]
Fréquences de communication: [VIEW]

Pistes:

Identifiant RWYQFULongueur (ft)Largeur (ft)SurfaceLDA (ft)
14159°565975ASPH
32339°565975ASPH

Coordonnées de l'aéroport

Adresse: Delano United States

Vue satellite de KDLO